sensor_id;sensor_type;location;lat;lon;timestamp;pressure;altitude;pressure_sealevel;temperature;humidity
31357;BME280;60001;48.404;11.738;2023-03-02T00:00:03;96272.59;;;2.31;71.24
31357;BME280;60001;48.404;11.738;2023-03-02T00:01:46;96262.78;;;2.19;71.09
31357;BME280;60001;48.404;11.738;2023-03-02T00:03:18;96270.81;;;2.31;71.40
31357;BME280;60001;48.404;11.738;2023-03-02T00:04:52;96275.59;;;2.28;71.14
31357;BME280;60001;48.404;11.738;2023-03-02T00:06:26;96277.41;;;2.34;71.59
31357;BME280;60001;48.404;11.738;2023-03-02T00:07:59;96266.59;;;2.30;70.93
31357;BME280;60001;48.404;11.738;2023-03-02T00:09:33;96276.22;;;2.30;70.98
31357;BME280;60001;48.404;11.738;2023-03-02T00:11:05;96279.63;;;2.30;70.92
31357;BME280;60001;48.404;11.738;2023-03-02T00:12:38;96279.00;;;2.15;72.07
31357;BME280;60001;48.404;11.738;2023-03-02T00:14:10;96271.38;;;2.07;71.97
31357;BME280;60001;48.404;11.738;2023-03-02T00:15:42;96281.81;;;2.20;71.21
31357;BME280;60001;48.404;11.738;2023-03-02T00:17:14;96292.44;;;2.25;71.03
31357;BME280;60001;48.404;11.738;2023-03-02T00:18:45;96276.59;;;2.20;71.81
31357;BME280;60001;48.404;11.738;2023-03-02T00:20:17;96275.59;;;2.21;71.74
31357;BME280;60001;48.404;11.738;2023-03-02T00:21:49;96272.38;;;2.19;71.56
31357;BME280;60001;48.404;11.738;2023-03-02T00:23:21;96272.97;;;2.21;71.29
31357;BME280;60001;48.404;11.738;2023-03-02T00:24:55;96265.38;;;2.26;71.53
31357;BME280;60001;48.404;11.738;2023-03-02T00:26:27;96267.19;;;2.26;71.43
31357;BME280;60001;48.404;11.738;2023-03-02T00:28:00;96264.56;;;2.19;71.07
31357;BME280;60001;48.404;11.738;2023-03-02T00:29:32;96244.16;;;2.09;71.38
31357;BME280;60001;48.404;11.738;2023-03-02T00:31:04;96271.38;;;2.20;71.37
31357;BME280;60001;48.404;11.738;2023-03-02T00:32:35;96270.38;;;2.21;70.98
31357;BME280;60001;48.404;11.738;2023-03-02T00:34:07;96265.00;;;2.16;71.13
31357;BME280;60001;48.404;11.738;2023-03-02T00:35:40;96268.38;;;2.16;72.03
31357;BME280;60001;48.404;11.738;2023-03-02T00:37:12;96269.19;;;2.17;71.82
31357;BME280;60001;48.404;11.738;2023-03-02T00:38:44;96267.59;;;2.16;71.59
31357;BME280;60001;48.404;11.738;2023-03-02T00:40:16;96266.34;;;1.99;72.20
31357;BME280;60001;48.404;11.738;2023-03-02T00:41:47;96266.97;;;2.07;71.93
31357;BME280;60001;48.404;11.738;2023-03-02T00:43:21;96259.56;;;2.11;72.02
31357;BME280;60001;48.404;11.738;2023-03-02T00:44:57;96260.75;;;2.15;71.47
31357;BME280;60001;48.404;11.738;2023-03-02T00:46:30;96267.38;;;2.17;71.45
31357;BME280;60001;48.404;11.738;2023-03-02T00:48:02;96270.38;;;2.14;71.67
31357;BME280;60001;48.404;11.738;2023-03-02T00:49:34;96268.38;;;2.16;71.26
31357;BME280;60001;48.404;11.738;2023-03-02T00:51:08;96258.34;;;2.13;71.27
31357;BME280;60001;48.404;11.738;2023-03-02T00:52:39;96255.53;;;2.15;71.21
31357;BME280;60001;48.404;11.738;2023-03-02T00:54:13;96272.81;;;2.16;71.53
31357;BME280;60001;48.404;11.738;2023-03-02T00:55:52;96269.97;;;2.11;72.25
31357;BME280;60001;48.404;11.738;2023-03-02T00:57:25;96264.38;;;2.14;71.95
31357;BME280;60001;48.404;11.738;2023-03-02T00:58:57;96261.56;;;2.02;71.69
31357;BME280;60001;48.404;11.738;2023-03-02T01:00:30;96254.94;;;2.00;72.11
31357;BME280;60001;48.404;11.738;2023-03-02T01:02:04;96263.53;;;2.00;72.25
31357;BME280;60001;48.404;11.738;2023-03-02T01:03:37;96256.53;;;2.07;72.39
31357;BME280;60001;48.404;11.738;2023-03-02T01:05:09;96252.75;;;2.03;71.97
31357;BME280;60001;48.404;11.738;2023-03-02T01:06:40;96262.16;;;2.04;72.10
31357;BME280;60001;48.404;11.738;2023-03-02T01:08:16;96244.50;;;1.93;72.83
31357;BME280;60001;48.404;11.738;2023-03-02T01:09:48;96250.94;;;1.97;72.71
31357;BME280;60001;48.404;11.738;2023-03-02T01:11:22;96249.53;;;2.01;72.92
31357;BME280;60001;48.404;11.738;2023-03-02T01:12:52;96247.94;;;2.07;72.52
31357;BME280;60001;48.404;11.738;2023-03-02T01:14:25;96243.34;;;2.09;72.53
31357;BME280;60001;48.404;11.738;2023-03-02T01:16:01;96244.50;;;2.00;72.59
31357;BME280;60001;48.404;11.738;2023-03-02T01:17:32;96236.31;;;2.03;72.49
31357;BME280;60001;48.404;11.738;2023-03-02T01:19:04;96245.72;;;1.97;72.65
31357;BME280;60001;48.404;11.738;2023-03-02T01:20:36;96236.72;;;2.00;73.01
31357;BME280;60001;48.404;11.738;2023-03-02T01:22:09;96238.13;;;2.02;72.93
31357;BME280;60001;48.404;11.738;2023-03-02T01:23:43;96235.88;;;1.86;73.26
31357;BME280;60001;48.404;11.738;2023-03-02T01:25:16;96234.09;;;1.93;72.98
31357;BME280;60001;48.404;11.738;2023-03-02T01:26:47;96233.09;;;2.01;73.19
31357;BME280;60001;48.404;11.738;2023-03-02T01:28:18;96222.28;;;1.90;73.20
31357;BME280;60001;48.404;11.738;2023-03-02T01:29:51;96221.06;;;2.00;72.75
31357;BME280;60001;48.404;11.738;2023-03-02T01:31:27;96225.09;;;1.96;73.37
31357;BME280;60001;48.404;11.738;2023-03-02T01:32:59;96218.09;;;1.89;73.30
31357;BME280;60001;48.404;11.738;2023-03-02T01:34:31;96220.69;;;1.89;73.24
31357;BME280;60001;48.404;11.738;2023-03-02T01:36:03;96219.69;;;1.90;73.07
31357;BME280;60001;48.404;11.738;2023-03-02T01:37:35;96213.47;;;1.85;73.23
31357;BME280;60001;48.404;11.738;2023-03-02T01:39:07;96218.28;;;1.88;73.45
31357;BME280;60001;48.404;11.738;2023-03-02T01:40:39;96218.09;;;1.89;73.18
31357;BME280;60001;48.404;11.738;2023-03-02T01:42:09;96217.88;;;1.91;73.03
31357;BME280;60001;48.404;11.738;2023-03-02T01:43:41;96206.66;;;1.84;73.38
31357;BME280;60001;48.404;11.738;2023-03-02T01:47:32;96203.06;;;1.91;73.13
31357;BME280;60001;48.404;11.738;2023-03-02T01:49:10;96206.84;;;1.82;73.75
31357;BME280;60001;48.404;11.738;2023-03-02T01:50:43;96202.66;;;1.88;74.06
31357;BME280;60001;48.404;11.738;2023-03-02T01:52:17;96199.44;;;1.86;74.08
31357;BME280;60001;48.404;11.738;2023-03-02T01:53:53;96201.22;;;1.79;73.83
31357;BME280;60001;48.404;11.738;2023-03-02T01:55:30;96198.44;;;1.80;74.33
31357;BME280;60001;48.404;11.738;2023-03-02T01:57:03;96191.03;;;1.77;74.11
31357;BME280;60001;48.404;11.738;2023-03-02T01:58:37;96194.84;;;1.81;74.10
31357;BME280;60001;48.404;11.738;2023-03-02T02:00:13;96201.44;;;1.77;74.26
31357;BME280;60001;48.404;11.738;2023-03-02T02:01:49;96196.66;;;1.74;75.02
31357;BME280;60001;48.404;11.738;2023-03-02T02:03:26;96200.22;;;1.80;74.42
31357;BME280;60001;48.404;11.738;2023-03-02T02:05:00;96181.63;;;1.76;74.33
31357;BME280;60001;48.404;11.738;2023-03-02T02:06:37;96193.22;;;1.87;74.63
31357;BME280;60001;48.404;11.738;2023-03-02T02:08:09;96179.41;;;1.80;74.26
31357;BME280;60001;48.404;11.738;2023-03-02T02:09:45;96192.25;;;1.81;74.97
31357;BME280;60001;48.404;11.738;2023-03-02T02:11:18;96195.22;;;1.78;74.95
31357;BME280;60001;48.404;11.738;2023-03-02T02:12:49;96193.84;;;1.89;75.10
31357;BME280;60001;48.404;11.738;2023-03-02T02:14:21;96200.25;;;1.93;74.04
31357;BME280;60001;48.404;11.738;2023-03-02T02:15:53;96194.81;;;1.95;74.75
31357;BME280;60001;48.404;11.738;2023-03-02T02:17:27;96187.44;;;1.98;74.44
31357;BME280;60001;48.404;11.738;2023-03-02T02:19:03;96187.84;;;1.95;74.22
31357;BME280;60001;48.404;11.738;2023-03-02T02:20:40;96186.41;;;1.86;74.72
31357;BME280;60001;48.404;11.738;2023-03-02T02:22:23;96189.44;;;1.89;75.24
31357;BME280;60001;48.404;11.738;2023-03-02T02:24:08;96181.22;;;1.92;74.89
31357;BME280;60001;48.404;11.738;2023-03-02T02:25:59;96181.41;;;1.78;75.19
31357;BME280;60001;48.404;11.738;2023-03-02T02:27:32;96182.44;;;1.83;75.67
31357;BME280;60001;48.404;11.738;2023-03-02T02:29:09;96181.00;;;1.87;75.62
31357;BME280;60001;48.404;11.738;2023-03-02T02:30:45;96174.19;;;1.80;75.39
31357;BME280;60001;48.404;11.738;2023-03-02T02:32:22;96178.00;;;1.84;75.63
31357;BME280;60001;48.404;11.738;2023-03-02T02:33:59;96175.00;;;1.93;74.90
31357;BME280;60001;48.404;11.738;2023-03-02T02:35:34;96175.22;;;1.92;75.19
31357;BME280;60001;48.404;11.738;2023-03-02T02:37:13;96172.81;;;1.90;76.30
31357;BME280;60001;48.404;11.738;2023-03-02T02:38:49;96167.41;;;1.92;76.02
31357;BME280;60001;48.404;11.738;2023-03-02T02:40:39;96168.81;;;1.81;76.16
31357;BME280;60001;48.404;11.738;2023-03-02T02:42:17;96173.59;;;1.78;76.71
31357;BME280;60001;48.404;11.738;2023-03-02T02:43:50;96169.41;;;1.77;77.20
31357;BME280;60001;48.404;11.738;2023-03-02T02:45:25;96166.38;;;1.80;76.72
31357;BME280;60001;48.404;11.738;2023-03-02T02:46:58;96168.59;;;1.83;76.74
31357;BME280;60001;48.404;11.738;2023-03-02T02:48:31;96164.00;;;1.85;76.19
31357;BME280;60001;48.404;11.738;2023-03-02T02:50:04;96167.00;;;1.95;76.70
31357;BME280;60001;48.404;11.738;2023-03-02T02:51:36;96163.63;;;1.88;76.47
31357;BME280;60001;48.404;11.738;2023-03-02T02:53:13;96165.38;;;1.94;76.38
31357;BME280;60001;48.404;11.738;2023-03-02T02:54:49;96163.63;;;1.88;77.08
31357;BME280;60001;48.404;11.738;2023-03-02T02:56:22;96170.63;;;1.81;77.42
31357;BME280;60001;48.404;11.738;2023-03-02T02:57:57;96173.81;;;1.89;76.53
31357;BME280;60001;48.404;11.738;2023-03-02T02:59:34;96172.22;;;1.95;76.41
31357;BME280;60001;48.404;11.738;2023-03-02T03:01:12;96170.22;;;1.90;76.89
31357;BME280;60001;48.404;11.738;2023-03-02T03:02:51;96171.22;;;1.83;76.83
31357;BME280;60001;48.404;11.738;2023-03-02T03:04:26;96162.19;;;1.85;77.45
31357;BME280;60001;48.404;11.738;2023-03-02T03:06:03;96162.59;;;1.82;77.05
31357;BME280;60001;48.404;11.738;2023-03-02T03:07:35;96166.81;;;2.03;76.86
31357;BME280;60001;48.404;11.738;2023-03-02T03:09:07;96166.00;;;2.03;76.15
31357;BME280;60001;48.404;11.738;2023-03-02T03:10:41;96163.41;;;2.03;76.75
31357;BME280;60001;48.404;11.738;2023-03-02T03:12:16;96161.78;;;2.08;75.89
31357;BME280;60001;48.404;11.738;2023-03-02T03:13:57;96163.19;;;1.98;76.43
31357;BME280;60001;48.404;11.738;2023-03-02T03:15:29;96166.00;;;1.96;76.87
31357;BME280;60001;48.404;11.738;2023-03-02T03:17:01;96160.81;;;2.03;75.90
31357;BME280;60001;48.404;11.738;2023-03-02T03:18:33;96165.81;;;1.98;76.96
31357;BME280;60001;48.404;11.738;2023-03-02T03:20:05;96155.19;;;1.99;76.26
31357;BME280;60001;48.404;11.738;2023-03-02T03:21:38;96143.38;;;1.83;76.25
31357;BME280;60001;48.404;11.738;2023-03-02T03:23:09;96148.97;;;1.87;76.70
31357;BME280;60001;48.404;11.738;2023-03-02T03:24:43;96155.78;;;1.81;77.43
31357;BME280;60001;48.404;11.738;2023-03-02T03:26:15;96152.38;;;1.94;77.00
31357;BME280;60001;48.404;11.738;2023-03-02T03:27:46;96150.19;;;1.84;77.65
31357;BME280;60001;48.404;11.738;2023-03-02T03:29:21;96149.97;;;1.79;78.11
31357;BME280;60001;48.404;11.738;2023-03-02T03:30:54;96147.97;;;1.75;77.85
31357;BME280;60001;48.404;11.738;2023-03-02T03:32:25;96145.19;;;1.89;77.18
31357;BME280;60001;48.404;11.738;2023-03-02T03:33:57;96148.97;;;1.87;77.75
31357;BME280;60001;48.404;11.738;2023-03-02T03:35:29;96147.38;;;1.92;77.14
31357;BME280;60001;48.404;11.738;2023-03-02T03:37:01;96150.97;;;1.91;77.52
31357;BME280;60001;48.404;11.738;2023-03-02T03:38:33;96147.16;;;1.87;76.86
31357;BME280;60001;48.404;11.738;2023-03-02T03:40:06;96148.59;;;1.97;77.43
31357;BME280;60001;48.404;11.738;2023-03-02T03:41:39;96151.78;;;1.99;77.19
31357;BME280;60001;48.404;11.738;2023-03-02T03:43:11;96154.97;;;2.01;76.93
31357;BME280;60001;48.404;11.738;2023-03-02T03:44:44;96150.56;;;2.01;77.05
31357;BME280;60001;48.404;11.738;2023-03-02T03:46:17;96148.59;;;1.90;76.96
31357;BME280;60001;48.404;11.738;2023-03-02T03:47:48;96150.78;;;2.00;77.09
31357;BME280;60001;48.404;11.738;2023-03-02T03:49:21;96140.19;;;1.88;76.46
31357;BME280;60001;48.404;11.738;2023-03-02T03:50:52;96154.19;;;1.93;76.97
31357;BME280;60001;48.404;11.738;2023-03-02T03:52:24;96153.78;;;1.90;77.02
31357;BME280;60001;48.404;11.738;2023-03-02T03:54:00;96151.38;;;1.82;77.48
31357;BME280;60001;48.404;11.738;2023-03-02T03:55:32;96148.56;;;1.70;77.67
31357;BME280;60001;48.404;11.738;2023-03-02T03:57:03;96155.97;;;1.86;77.83
31357;BME280;60001;48.404;11.738;2023-03-02T03:58:35;96153.00;;;1.89;77.07
31357;BME280;60001;48.404;11.738;2023-03-02T04:00:11;96148.38;;;1.91;77.30
31357;BME280;60001;48.404;11.738;2023-03-02T04:01:48;96153.78;;;1.90;76.70
31357;BME280;60001;48.404;11.738;2023-03-02T04:03:20;96151.38;;;1.88;76.87
31357;BME280;60001;48.404;11.738;2023-03-02T04:04:52;96153.00;;;1.89;77.54
31357;BME280;60001;48.404;11.738;2023-03-02T04:06:23;96160.38;;;1.92;76.92
31357;BME280;60001;48.404;11.738;2023-03-02T04:07:55;96159.00;;;1.90;77.25
31357;BME280;60001;48.404;11.738;2023-03-02T04:09:28;96151.38;;;1.82;77.74
31357;BME280;60001;48.404;11.738;2023-03-02T04:11:07;96159.00;;;1.83;77.86
31357;BME280;60001;48.404;11.738;2023-03-02T04:12:39;96160.38;;;1.92;77.27
31357;BME280;60001;48.404;11.738;2023-03-02T04:14:12;96152.56;;;1.92;77.62
31357;BME280;60001;48.404;11.738;2023-03-02T04:15:45;96148.97;;;1.93;77.21
31357;BME280;60001;48.404;11.738;2023-03-02T04:17:17;96146.56;;;1.85;77.74
31357;BME280;60001;48.404;11.738;2023-03-02T04:18:48;96147.56;;;1.91;77.05
31357;BME280;60001;48.404;11.738;2023-03-02T04:20:24;96145.97;;;1.83;77.58
31357;BME280;60001;48.404;11.738;2023-03-02T04:21:56;96144.56;;;1.87;77.02
31357;BME280;60001;48.404;11.738;2023-03-02T04:23:28;96149.38;;;1.90;77.68
31357;BME280;60001;48.404;11.738;2023-03-02T04:25:00;96154.38;;;1.92;77.30
31357;BME280;60001;48.404;11.738;2023-03-02T04:26:33;96148.59;;;1.97;77.16
31357;BME280;60001;48.404;11.738;2023-03-02T04:28:05;96152.38;;;1.74;77.96
31357;BME280;60001;48.404;11.738;2023-03-02T04:29:37;96150.19;;;1.78;78.23
31357;BME280;60001;48.404;11.738;2023-03-02T04:31:10;96149.38;;;1.77;77.64
31357;BME280;60001;48.404;11.738;2023-03-02T04:32:42;96149.59;;;1.89;78.17
31357;BME280;60001;48.404;11.738;2023-03-02T04:34:14;96151.78;;;1.92;78.00
31357;BME280;60001;48.404;11.738;2023-03-02T04:35:46;96146.56;;;1.92;77.67
31357;BME280;60001;48.404;11.738;2023-03-02T04:37:18;96150.56;;;1.95;76.98
31357;BME280;60001;48.404;11.738;2023-03-02T04:38:49;96142.97;;;1.86;77.65
31357;BME280;60001;48.404;11.738;2023-03-02T04:40:21;96141.38;;;1.92;77.68
31357;BME280;60001;48.404;11.738;2023-03-02T04:41:53;96146.38;;;1.93;77.80
31357;BME280;60001;48.404;11.738;2023-03-02T04:43:25;96146.97;;;1.96;77.50
31357;BME280;60001;48.404;11.738;2023-03-02T04:44:57;96153.00;;;2.03;77.25
31357;BME280;60001;48.404;11.738;2023-03-02T04:46:30;96131.56;;;1.74;77.82
31357;BME280;60001;48.404;11.738;2023-03-02T04:48:04;96138.97;;;1.84;77.71
31357;BME280;60001;48.404;11.738;2023-03-02T04:49:36;96147.78;;;1.76;78.55
31357;BME280;60001;48.404;11.738;2023-03-02T04:51:16;96128.75;;;1.76;78.10
31357;BME280;60001;48.404;11.738;2023-03-02T04:52:53;96138.16;;;1.83;78.03
31357;BME280;60001;48.404;11.738;2023-03-02T04:54:26;96133.97;;;1.82;77.84
31357;BME280;60001;48.404;11.738;2023-03-02T04:55:58;96135.16;;;1.86;77.67
31357;BME280;60001;48.404;11.738;2023-03-02T04:57:30;96127.34;;;1.80;78.30
31357;BME280;60001;48.404;11.738;2023-03-02T04:59:01;96131.97;;;1.84;78.41
31357;BME280;60001;48.404;11.738;2023-03-02T05:00:33;96134.75;;;1.83;78.09
31357;BME280;60001;48.404;11.738;2023-03-02T05:02:07;96138.97;;;1.77;78.07
31357;BME280;60001;48.404;11.738;2023-03-02T05:03:39;96145.56;;;1.80;78.38
31357;BME280;60001;48.404;11.738;2023-03-02T05:05:15;96139.97;;;1.83;78.43
31357;BME280;60001;48.404;11.738;2023-03-02T05:06:48;96139.38;;;1.74;78.45
31357;BME280;60001;48.404;11.738;2023-03-02T05:08:20;96146.19;;;1.88;77.56
31357;BME280;60001;48.404;11.738;2023-03-02T05:09:53;96141.56;;;1.84;77.80
31357;BME280;60001;48.404;11.738;2023-03-02T05:11:25;96134.34;;;1.92;77.99
31357;BME280;60001;48.404;11.738;2023-03-02T05:12:57;96125.94;;;1.90;77.25
31357;BME280;60001;48.404;11.738;2023-03-02T05:14:32;96133.97;;;1.82;78.02
31357;BME280;60001;48.404;11.738;2023-03-02T05:16:04;96130.75;;;1.93;77.37
31357;BME280;60001;48.404;11.738;2023-03-02T05:17:37;96130.34;;;1.97;77.05
31357;BME280;60001;48.404;11.738;2023-03-02T05:19:10;96132.75;;;1.91;77.85
31357;BME280;60001;48.404;11.738;2023-03-02T05:20:42;96124.72;;;1.86;77.99
31357;BME280;60001;48.404;11.738;2023-03-02T05:22:14;96125.53;;;1.80;77.89
31357;BME280;60001;48.404;11.738;2023-03-02T05:23:46;96123.94;;;1.79;78.35
31357;BME280;60001;48.404;11.738;2023-03-02T05:25:18;96126.34;;;1.87;77.97
31357;BME280;60001;48.404;11.738;2023-03-02T05:26:50;96131.16;;;1.84;78.33
31357;BME280;60001;48.404;11.738;2023-03-02T05:28:24;96117.34;;;1.83;77.87
31357;BME280;60001;48.404;11.738;2023-03-02T05:29:56;96131.16;;;1.90;78.25
31357;BME280;60001;48.404;11.738;2023-03-02T05:31:31;96130.75;;;1.80;78.31
31357;BME280;60001;48.404;11.738;2023-03-02T05:33:06;96132.53;;;1.86;78.12
31357;BME280;60001;48.404;11.738;2023-03-02T05:34:37;96131.94;;;1.98;77.59
31357;BME280;60001;48.404;11.738;2023-03-02T05:36:09;96134.34;;;1.92;77.73
31357;BME280;60001;48.404;11.738;2023-03-02T05:37:41;96135.56;;;2.03;77.80
31357;BME280;60001;48.404;11.738;2023-03-02T05:39:15;96129.13;;;1.79;78.26
31357;BME280;60001;48.404;11.738;2023-03-02T05:40:47;96142.94;;;1.73;78.20
31357;BME280;60001;48.404;11.738;2023-03-02T05:42:17;96139.97;;;1.83;77.83
31357;BME280;60001;48.404;11.738;2023-03-02T05:43:50;96146.78;;;1.90;77.95
31357;BME280;60001;48.404;11.738;2023-03-02T05:45:24;96142.78;;;1.75;78.13
31357;BME280;60001;48.404;11.738;2023-03-02T05:46:57;96133.16;;;1.62;79.58
31357;BME280;60001;48.404;11.738;2023-03-02T05:48:31;96141.78;;;1.76;78.92
31357;BME280;60001;48.404;11.738;2023-03-02T05:50:02;96145.97;;;1.63;78.74
31357;BME280;60001;48.404;11.738;2023-03-02T05:51:34;96144.38;;;1.76;79.03
31357;BME280;60001;48.404;11.738;2023-03-02T05:53:07;96145.38;;;1.88;78.45
31357;BME280;60001;48.404;11.738;2023-03-02T05:54:38;96146.97;;;1.96;77.69
31357;BME280;60001;48.404;11.738;2023-03-02T05:56:10;96149.38;;;1.97;78.34
31357;BME280;60001;48.404;11.738;2023-03-02T05:57:41;96143.38;;;1.97;78.05
31357;BME280;60001;48.404;11.738;2023-03-02T05:59:13;96151.97;;;1.97;78.20
31357;BME280;60001;48.404;11.738;2023-03-02T06:00:47;96145.97;;;2.03;77.90
31357;BME280;60001;48.404;11.738;2023-03-02T06:02:19;96146.19;;;1.95;77.75
31357;BME280;60001;48.404;11.738;2023-03-02T06:03:52;96151.97;;;2.04;78.00
31357;BME280;60001;48.404;11.738;2023-03-02T06:05:24;96150.38;;;2.09;77.56
31357;BME280;60001;48.404;11.738;2023-03-02T06:06:55;96146.34;;;2.13;77.34
31357;BME280;60001;48.404;11.738;2023-03-02T06:08:27;96152.56;;;2.12;77.51
31357;BME280;60001;48.404;11.738;2023-03-02T06:09:59;96152.56;;;2.06;77.61
31357;BME280;60001;48.404;11.738;2023-03-02T06:11:30;96157.41;;;2.09;77.39
31357;BME280;60001;48.404;11.738;2023-03-02T06:13:02;96156.38;;;2.16;77.01
31357;BME280;60001;48.404;11.738;2023-03-02T06:14:35;96152.56;;;2.12;77.74
31357;BME280;60001;48.404;11.738;2023-03-02T06:16:07;96153.97;;;2.08;77.78
31357;BME280;60001;48.404;11.738;2023-03-02T06:17:39;96154.16;;;2.07;77.28
31357;BME280;60001;48.404;11.738;2023-03-02T06:19:12;96153.00;;;2.09;77.79
31357;BME280;60001;48.404;11.738;2023-03-02T06:20:44;96153.97;;;2.15;77.59
31357;BME280;60001;48.404;11.738;2023-03-02T06:22:17;96153.56;;;2.18;77.71
31357;BME280;60001;48.404;11.738;2023-03-02T06:23:47;96160.97;;;2.21;77.45
31357;BME280;60001;48.404;11.738;2023-03-02T06:25:21;96157.56;;;2.20;77.59
31357;BME280;60001;48.404;11.738;2023-03-02T06:26:54;96160.97;;;2.28;76.90
31357;BME280;60001;48.404;11.738;2023-03-02T06:28:26;96161.16;;;2.33;77.48
31357;BME280;60001;48.404;11.738;2023-03-02T06:29:57;96161.38;;;2.25;76.98
31357;BME280;60001;48.404;11.738;2023-03-02T06:31:30;96159.78;;;2.30;77.11
31357;BME280;60001;48.404;11.738;2023-03-02T06:33:01;96159.16;;;2.35;76.34
31357;BME280;60001;48.404;11.738;2023-03-02T06:34:35;96157.34;;;2.42;76.68
31357;BME280;60001;48.404;11.738;2023-03-02T06:36:07;96159.34;;;2.33;76.38
31357;BME280;60001;48.404;11.738;2023-03-02T06:37:42;96159.56;;;2.32;76.55
31357;BME280;60001;48.404;11.738;2023-03-02T06:39:13;96161.53;;;2.50;76.52
31357;BME280;60001;48.404;11.738;2023-03-02T06:40:46;96164.34;;;2.48;77.08
31357;BME280;60001;48.404;11.738;2023-03-02T06:42:18;96149.50;;;2.48;76.71
31357;BME280;60001;48.404;11.738;2023-03-02T06:43:50;96155.72;;;2.54;76.40
31357;BME280;60001;48.404;11.738;2023-03-02T06:45:21;96154.66;;;2.68;76.47
31357;BME280;60001;48.404;11.738;2023-03-02T06:46:53;96149.06;;;2.65;76.46
31357;BME280;60001;48.404;11.738;2023-03-02T06:48:25;96156.25;;;2.69;76.14
31357;BME280;60001;48.404;11.738;2023-03-02T06:49:59;96149.22;;;2.77;76.26
31357;BME280;60001;48.404;11.738;2023-03-02T06:51:30;96153.66;;;2.69;76.33
31357;BME280;60001;48.404;11.738;2023-03-02T06:53:01;96157.25;;;2.75;75.58
31357;BME280;60001;48.404;11.738;2023-03-02T06:54:33;96149.84;;;2.79;75.93
31357;BME280;60001;48.404;11.738;2023-03-02T06:56:05;96165.00;;;3.01;75.14
31357;BME280;60001;48.404;11.738;2023-03-02T06:57:37;96165.53;;;3.10;75.22
31357;BME280;60001;48.404;11.738;2023-03-02T06:59:08;96171.72;;;3.22;74.47
31357;BME280;60001;48.404;11.738;2023-03-02T07:00:40;96172.28;;;3.31;74.31
31357;BME280;60001;48.404;11.738;2023-03-02T07:02:12;96167.41;;;3.41;74.16
31357;BME280;60001;48.404;11.738;2023-03-02T07:03:44;96169.56;;;3.51;73.56
31357;BME280;60001;48.404;11.738;2023-03-02T07:05:18;96168.28;;;3.60;73.34
31357;BME280;60001;48.404;11.738;2023-03-02T07:06:50;96173.25;;;3.68;72.97
31357;BME280;60001;48.404;11.738;2023-03-02T07:08:22;96176.13;;;3.60;72.27
31357;BME280;60001;48.404;11.738;2023-03-02T07:09:54;96174.19;;;3.49;72.36
31357;BME280;60001;48.404;11.738;2023-03-02T07:11:26;96171.38;;;3.50;73.39
31357;BME280;60001;48.404;11.738;2023-03-02T07:12:57;96168.09;;;3.62;73.42
31357;BME280;60001;48.404;11.738;2023-03-02T07:14:29;96174.88;;;3.69;73.07
31357;BME280;60001;48.404;11.738;2023-03-02T07:16:05;96174.00;;;3.75;72.21
31357;BME280;60001;48.404;11.738;2023-03-02T07:17:37;96176.44;;;3.77;72.15
31357;BME280;60001;48.404;11.738;2023-03-02T07:19:10;96166.78;;;3.77;72.26
31357;BME280;60001;48.404;11.738;2023-03-02T07:20:44;96170.16;;;3.84;72.08
31357;BME280;60001;48.404;11.738;2023-03-02T07:22:15;96167.09;;;3.88;71.53
31357;BME280;60001;48.404;11.738;2023-03-02T07:23:47;96177.72;;;3.93;71.33
31357;BME280;60001;48.404;11.738;2023-03-02T07:25:19;96171.25;;;3.95;70.97
31357;BME280;60001;48.404;11.738;2023-03-02T07:26:51;96176.66;;;4.00;71.46
31357;BME280;60001;48.404;11.738;2023-03-02T07:28:22;96169.81;;;3.99;70.38
31357;BME280;60001;48.404;11.738;2023-03-02T07:29:54;96183.09;;;3.98;71.09
31357;BME280;60001;48.404;11.738;2023-03-02T07:31:27;96170.44;;;3.95;71.05
31357;BME280;60001;48.404;11.738;2023-03-02T07:32:59;96183.81;;;4.11;70.88
31357;BME280;60001;48.404;11.738;2023-03-02T07:34:30;96181.09;;;4.25;70.84
31357;BME280;60001;48.404;11.738;2023-03-02T07:36:05;96183.28;;;3.96;70.57
31357;BME280;60001;48.404;11.738;2023-03-02T07:37:37;96175.09;;;3.93;70.53
31357;BME280;60001;48.404;11.738;2023-03-02T07:39:09;96187.44;;;4.10;70.64
31357;BME280;60001;48.404;11.738;2023-03-02T07:40:41;96191.38;;;4.20;70.24
31357;BME280;60001;48.404;11.738;2023-03-02T07:42:14;96180.69;;;4.21;70.72
31357;BME280;60001;48.404;11.738;2023-03-02T07:43:46;96193.81;;;4.15;70.25
31357;BME280;60001;48.404;11.738;2023-03-02T07:45:17;96185.06;;;4.02;69.89
31357;BME280;60001;48.404;11.738;2023-03-02T07:46:54;96182.50;;;4.21;70.07
31357;BME280;60001;48.404;11.738;2023-03-02T07:48:26;96189.16;;;4.17;69.91
31357;BME280;60001;48.404;11.738;2023-03-02T07:49:58;96186.44;;;4.30;70.34
31357;BME280;60001;48.404;11.738;2023-03-02T07:51:31;96178.72;;;4.42;69.76
31357;BME280;60001;48.404;11.738;2023-03-02T07:53:03;96182.69;;;4.44;69.47
31357;BME280;60001;48.404;11.738;2023-03-02T07:54:35;96186.94;;;4.45;69.47
31357;BME280;60001;48.404;11.738;2023-03-02T07:56:09;96187.75;;;4.46;69.28
31357;BME280;60001;48.404;11.738;2023-03-02T07:57:42;96183.59;;;4.56;69.24
31357;BME280;60001;48.404;11.738;2023-03-02T07:59:14;96188.41;;;4.59;69.13
31357;BME280;60001;48.404;11.738;2023-03-02T08:00:46;96185.78;;;4.59;69.47
31357;BME280;60001;48.404;11.738;2023-03-02T08:02:18;96195.59;;;4.64;69.16
31357;BME280;60001;48.404;11.738;2023-03-02T08:03:50;96189.59;;;4.82;68.85
31357;BME280;60001;48.404;11.738;2023-03-02T08:05:22;96192.41;;;4.80;68.88
31357;BME280;60001;48.404;11.738;2023-03-02T08:06:55;96192.97;;;5.01;68.41
31357;BME280;60001;48.404;11.738;2023-03-02T08:08:27;96191.69;;;5.10;67.76
31357;BME280;60001;48.404;11.738;2023-03-02T08:09:59;96178.59;;;5.10;67.53
31357;BME280;60001;48.404;11.738;2023-03-02T08:11:31;96191.59;;;5.16;67.63
31357;BME280;60001;48.404;11.738;2023-03-02T08:13:03;96192.66;;;5.27;67.47
31357;BME280;60001;48.404;11.738;2023-03-02T08:14:36;96195.16;;;5.22;67.20